WZZ03R EETN-EVRA
Flight info
| Callsign | WZZ03R |
|---|---|
| Flight time | 0h 31m |
| Altitude | 20000 |
| Route | ORTAX DCT LUTAL |
| Aircraft | A321/M-SDE3FGHIRWY/LB1 |
Departure
| Time | 2025-09-09 21:30 |
|---|---|
| Airport | Lennart Meri Tallinn Airport (EETN) |
Arrival
| Time | 2025-09-09 22:01 |
|---|---|
| Airport | Riga International Airport (EVRA) |
| Time | Latitude | Longitude | Altitude | Speed | Heading |
|---|---|---|---|---|---|
| 2025-09-09 21:07 | 59.41573 | 24.80135 | 141 ft | 0 kts | 4° |
| 2025-09-09 21:23 | 59.41546 | 24.80128 | 140 ft | 3 kts | 33° |
| 2025-09-09 21:24 | 59.41529 | 24.80067 | 140 ft | 3 kts | 88° |
| 2025-09-09 21:27 | 59.41528 | 24.80191 | 140 ft | 18 kts | 91° |
| 2025-09-09 21:27 | 59.41441 | 24.80480 | 139 ft | 14 kts | 158° |
| 2025-09-09 21:28 | 59.41331 | 24.80839 | 136 ft | 15 kts | 91° |
| 2025-09-09 21:29 | 59.41327 | 24.84550 | 170 ft | 171 kts | 89° |
| 2025-09-09 21:29 | 59.41256 | 24.89202 | 1512 ft | 170 kts | 97° |
| 2025-09-09 21:30 | 59.39737 | 24.92647 | 2161 ft | 199 kts | 166° |
| 2025-09-09 21:30 | 59.36896 | 24.90867 | 2641 ft | 247 kts | 211° |
| 2025-09-09 21:31 | 59.33879 | 24.87275 | 4104 ft | 257 kts | 208° |
| 2025-09-09 21:31 | 59.30731 | 24.83677 | 5620 ft | 267 kts | 208° |
| 2025-09-09 21:32 | 59.27460 | 24.80031 | 7102 ft | 274 kts | 207° |
| 2025-09-09 21:32 | 59.25789 | 24.78213 | 7832 ft | 276 kts | 207° |
| 2025-09-09 21:33 | 59.20685 | 24.72610 | 9946 ft | 289 kts | 210° |
| 2025-09-09 21:33 | 59.17127 | 24.68373 | 10715 ft | 319 kts | 210° |
| 2025-09-09 21:34 | 59.13041 | 24.63635 | 10967 ft | 363 kts | 209° |
| 2025-09-09 21:34 | 59.08521 | 24.58522 | 11795 ft | 383 kts | 209° |
| 2025-09-09 21:35 | 59.03863 | 24.53304 | 13047 ft | 390 kts | 209° |
| 2025-09-09 21:35 | 58.99124 | 24.48007 | 14300 ft | 397 kts | 209° |
| 2025-09-09 21:36 | 58.94302 | 24.42603 | 15438 ft | 404 kts | 209° |
| 2025-09-09 21:36 | 58.91857 | 24.39874 | 16011 ft | 407 kts | 209° |
| 2025-09-09 21:37 | 58.84284 | 24.32152 | 17674 ft | 417 kts | 198° |
| 2025-09-09 21:37 | 58.78607 | 24.29488 | 18709 ft | 423 kts | 192° |
| 2025-09-09 21:38 | 58.72830 | 24.26952 | 19617 ft | 428 kts | 192° |
| 2025-09-09 21:38 | 58.66989 | 24.24382 | 20272 ft | 431 kts | 192° |
| 2025-09-09 21:39 | 58.61002 | 24.21767 | 20321 ft | 451 kts | 192° |
| 2025-09-09 21:39 | 58.57935 | 24.20432 | 20322 ft | 453 kts | 192° |
| 2025-09-09 21:40 | 58.48710 | 24.16429 | 20321 ft | 453 kts | 192° |
| 2025-09-09 21:40 | 58.45639 | 24.15105 | 20325 ft | 453 kts | 192° |
| 2025-09-09 21:41 | 58.36421 | 24.11142 | 20319 ft | 452 kts | 192° |
| 2025-09-09 21:41 | 58.30285 | 24.08510 | 20312 ft | 452 kts | 192° |
| 2025-09-09 21:42 | 58.24154 | 24.05896 | 20305 ft | 451 kts | 192° |
| 2025-09-09 21:42 | 58.18028 | 24.03301 | 19040 ft | 450 kts | 192° |
| 2025-09-09 21:43 | 58.11970 | 24.00731 | 17439 ft | 441 kts | 192° |
| 2025-09-09 21:43 | 58.06054 | 23.98226 | 15920 ft | 430 kts | 192° |
| 2025-09-09 21:44 | 58.00394 | 23.95836 | 15459 ft | 401 kts | 191° |
| 2025-09-09 21:44 | 57.92700 | 23.92612 | 15074 ft | 356 kts | 191° |
| 2025-09-09 21:45 | 57.90300 | 23.91728 | 14777 ft | 347 kts | 185° |
| 2025-09-09 21:45 | 57.85504 | 23.91785 | 13868 ft | 345 kts | 176° |
| 2025-09-09 21:46 | 57.81567 | 23.92107 | 12894 ft | 338 kts | 176° |
| 2025-09-09 21:46 | 57.76898 | 23.92483 | 11727 ft | 333 kts | 176° |
| 2025-09-09 21:46 | 57.74575 | 23.92668 | 11245 ft | 332 kts | 176° |
| 2025-09-09 21:47 | 57.70155 | 23.93003 | 10797 ft | 301 kts | 176° |
| 2025-09-09 21:47 | 57.66182 | 23.93302 | 10218 ft | 285 kts | 175° |
| 2025-09-09 21:48 | 57.62191 | 23.93604 | 9610 ft | 287 kts | 179° |
| 2025-09-09 21:49 | 57.56327 | 23.91525 | 8463 ft | 286 kts | 190° |
| 2025-09-09 21:49 | 57.52471 | 23.89907 | 7729 ft | 283 kts | 190° |
| 2025-09-09 21:50 | 57.48632 | 23.88687 | 7069 ft | 277 kts | 182° |
| 2025-09-09 21:50 | 57.44807 | 23.88081 | 6342 ft | 274 kts | 182° |
| 2025-09-09 21:50 | 57.42916 | 23.87773 | 5840 ft | 271 kts | 183° |
| 2025-09-09 21:51 | 57.39279 | 23.87188 | 5301 ft | 250 kts | 183° |
| 2025-09-09 21:51 | 57.35932 | 23.87198 | 4497 ft | 234 kts | 166° |
| 2025-09-09 21:52 | 57.32854 | 23.88949 | 3743 ft | 229 kts | 161° |
| 2025-09-09 21:53 | 57.28242 | 23.91614 | 3503 ft | 231 kts | 162° |
| 2025-09-09 21:53 | 57.25174 | 23.93381 | 3312 ft | 231 kts | 162° |
| 2025-09-09 21:54 | 57.22114 | 23.95140 | 3126 ft | 230 kts | 162° |
| 2025-09-09 21:54 | 57.19064 | 23.96893 | 2929 ft | 229 kts | 161° |
| 2025-09-09 21:54 | 57.17539 | 23.97766 | 2851 ft | 229 kts | 161° |
| 2025-09-09 21:55 | 57.14662 | 23.99402 | 2678 ft | 200 kts | 161° |
| 2025-09-09 21:55 | 57.12248 | 24.00385 | 2527 ft | 158 kts | 178° |
| 2025-09-09 21:56 | 57.08226 | 23.99748 | 2504 ft | 141 kts | 182° |
| 2025-09-09 21:57 | 57.07249 | 23.99587 | 2511 ft | 141 kts | 181° |
| 2025-09-09 21:57 | 57.04320 | 23.99101 | 2132 ft | 141 kts | 182° |
| 2025-09-09 21:58 | 57.03348 | 23.98939 | 1956 ft | 140 kts | 182° |
| 2025-09-09 21:58 | 57.01421 | 23.98619 | 1586 ft | 139 kts | 181° |
| 2025-09-09 21:59 | 56.99500 | 23.98300 | 1222 ft | 139 kts | 182° |
| 2025-09-09 21:59 | 56.97573 | 23.97981 | 861 ft | 139 kts | 181° |
| 2025-09-09 22:00 | 56.95618 | 23.97690 | 499 ft | 142 kts | 183° |
| 2025-09-09 22:00 | 56.92657 | 23.97166 | 38 ft | 127 kts | 184° |
| 2025-09-09 22:01 | 56.91727 | 23.97067 | 36 ft | 10 kts | 112° |
| 2025-09-09 22:01 | 56.91717 | 23.97198 | 36 ft | 12 kts | 99° |
| 2025-09-09 22:02 | 56.91799 | 23.97420 | 35 ft | 14 kts | 4° |
| 2025-09-09 22:02 | 56.92018 | 23.97446 | 35 ft | 17 kts | 3° |
| 2025-09-09 22:02 | 56.92126 | 23.97470 | 35 ft | 13 kts | 26° |
| 2025-09-09 22:03 | 56.92172 | 23.97743 | 35 ft | 8 kts | 6° |
| 2025-09-09 22:04 | 56.92186 | 23.97746 | 35 ft | 0 kts | 6° |